createdAt,value
2018-08-18T00:00:16.600Z,15.30
2018-08-18T00:02:45.150Z,15.20
2018-08-18T00:05:14.552Z,15.20
2018-08-18T00:07:43.158Z,15.20
2018-08-18T00:10:13.722Z,15.10
2018-08-18T00:12:42.169Z,15.10
2018-08-18T00:15:10.752Z,15.10
2018-08-18T00:17:39.938Z,15.10
2018-08-18T00:20:10.792Z,15.10
2018-08-18T00:22:39.364Z,15.10
2018-08-18T00:25:07.848Z,15.00
2018-08-18T00:27:36.378Z,15.00
2018-08-18T00:30:11.684Z,15.00
2018-08-18T00:32:40.242Z,15.00
2018-08-18T00:35:08.954Z,15.00
2018-08-18T00:37:37.464Z,14.90
2018-08-18T00:40:07.560Z,14.90
2018-08-18T00:42:36.148Z,14.90
2018-08-18T00:45:05.921Z,14.80
2018-08-18T00:47:34.407Z,14.80
2018-08-18T00:50:03.020Z,14.80
2018-08-18T00:52:31.578Z,14.80
2018-08-18T00:55:00.150Z,14.80
2018-08-18T00:57:31.238Z,14.80
2018-08-18T01:00:00.232Z,14.80
2018-08-18T01:02:29.197Z,14.80
2018-08-18T01:04:59.111Z,14.80
2018-08-18T01:07:29.049Z,14.80
2018-08-18T01:09:57.933Z,14.80
2018-08-18T01:12:27.054Z,14.80
2018-08-18T01:14:56.310Z,14.70
2018-08-18T01:17:25.029Z,14.80
2018-08-18T01:19:55.002Z,14.80
2018-08-18T01:22:23.520Z,14.80
2018-08-18T01:24:52.708Z,14.80
2018-08-18T01:27:21.486Z,14.80
2018-08-18T01:29:55.155Z,14.80
2018-08-18T01:32:23.841Z,14.80
2018-08-18T01:34:52.981Z,14.80
2018-08-18T01:37:21.726Z,14.70
2018-08-18T01:39:51.234Z,14.70
2018-08-18T01:42:19.755Z,14.70
2018-08-18T01:44:48.272Z,14.70
2018-08-18T01:47:17.551Z,14.70
2018-08-18T01:49:45.977Z,14.70
2018-08-18T01:52:19.693Z,14.80
2018-08-18T01:54:48.136Z,14.80
2018-08-18T01:57:18.840Z,14.70
2018-08-18T01:59:47.835Z,14.60
2018-08-18T02:02:26.539Z,14.60
2018-08-18T02:05:00.187Z,14.60
2018-08-18T02:07:33.556Z,14.50
2018-08-18T02:10:02.145Z,14.50
2018-08-18T02:12:30.726Z,14.50
2018-08-18T02:14:59.980Z,14.50
2018-08-18T02:17:31.425Z,14.50
2018-08-18T02:20:00.209Z,14.50
2018-08-18T02:22:29.487Z,14.50
2018-08-18T02:24:57.929Z,14.60
2018-08-18T02:27:26.441Z,14.60
2018-08-18T02:30:15.943Z,14.60
2018-08-18T02:32:44.479Z,14.60
2018-08-18T02:35:12.983Z,14.60
2018-08-18T02:37:41.583Z,14.50
2018-08-18T02:40:12.515Z,14.60
2018-08-18T02:42:41.320Z,14.50
2018-08-18T02:45:10.889Z,14.50
2018-08-18T02:47:39.451Z,14.60
2018-08-18T02:50:09.075Z,14.60
2018-08-18T02:52:37.769Z,14.50
2018-08-18T02:55:08.693Z,14.60
2018-08-18T02:57:38.441Z,14.60
2018-08-18T03:00:08.982Z,14.60
2018-08-18T03:02:37.555Z,14.60
2018-08-18T03:05:06.021Z,14.60
2018-08-18T03:07:40.384Z,14.50
2018-08-18T03:10:14.817Z,14.50
2018-08-18T03:12:44.991Z,14.60
2018-08-18T03:15:28.697Z,14.50
2018-08-18T03:17:57.152Z,14.50
2018-08-18T03:20:25.582Z,14.50
2018-08-18T03:22:54.043Z,14.50
2018-08-18T03:25:32.561Z,14.60
2018-08-18T03:28:01.110Z,14.60
2018-08-18T03:30:29.532Z,14.40
2018-08-18T03:32:57.970Z,14.50
2018-08-18T03:35:26.437Z,14.50
2018-08-18T03:37:54.903Z,14.50
2018-08-18T03:40:23.408Z,14.40
2018-08-18T03:42:51.931Z,14.40
2018-08-18T03:45:20.391Z,14.40
2018-08-18T03:47:49.025Z,14.30
2018-08-18T03:50:17.582Z,14.30
2018-08-18T03:52:46.018Z,14.30
2018-08-18T03:55:14.535Z,14.30
2018-08-18T03:57:48.006Z,14.30
2018-08-18T04:00:17.613Z,14.20
2018-08-18T04:02:46.261Z,14.20
2018-08-18T04:05:14.716Z,14.20
2018-08-18T04:07:47.930Z,14.10
2018-08-18T04:10:18.185Z,14.10
2018-08-18T04:12:46.856Z,14.00
2018-08-18T04:15:15.360Z,14.00
2018-08-18T04:17:43.802Z,14.00
2018-08-18T04:20:12.296Z,14.00
2018-08-18T04:22:40.885Z,13.90
2018-08-18T04:25:09.413Z,13.90
2018-08-18T04:27:41.489Z,13.90
2018-08-18T04:30:15.176Z,13.90
2018-08-18T04:32:53.196Z,13.90
2018-08-18T04:35:22.790Z,13.90
2018-08-18T04:37:52.261Z,13.90
2018-08-18T04:40:21.581Z,13.90
2018-08-18T04:42:50.163Z,13.80
2018-08-18T04:45:20.073Z,13.90
2018-08-18T04:47:48.536Z,13.90
2018-08-18T04:50:16.988Z,13.90
2018-08-18T04:52:45.546Z,13.90
2018-08-18T04:55:14.911Z,13.80
2018-08-18T04:57:43.549Z,13.90
2018-08-18T05:00:14.015Z,13.90
2018-08-18T05:02:46.737Z,13.90
2018-08-18T05:05:15.827Z,13.90
2018-08-18T05:07:48.196Z,13.90
2018-08-18T05:10:18.339Z,14.00
2018-08-18T05:12:46.796Z,14.00
2018-08-18T05:15:16.312Z,14.00
2018-08-18T05:17:44.746Z,14.00
2018-08-18T05:20:18.099Z,14.00
2018-08-18T05:22:46.608Z,14.00
2018-08-18T05:25:15.549Z,14.00
2018-08-18T05:27:44.020Z,14.10
2018-08-18T05:30:12.577Z,14.10
2018-08-18T05:32:41.073Z,14.20
2018-08-18T05:35:10.113Z,14.20
2018-08-18T05:37:38.583Z,14.30
2018-08-18T05:40:07.565Z,14.30
2018-08-18T05:42:36.263Z,14.40
2018-08-18T05:45:35.961Z,14.50
2018-08-18T05:48:04.477Z,14.50
2018-08-18T05:50:32.919Z,14.60
2018-08-18T05:53:26.312Z,14.60
2018-08-18T05:55:55.179Z,14.70
2018-08-18T05:58:23.743Z,14.80
2018-08-18T06:01:23.195Z,14.80
2018-08-18T06:03:57.213Z,15.00
2018-08-18T06:06:25.984Z,15.10
2018-08-18T06:08:54.865Z,15.20
2018-08-18T06:11:23.411Z,15.30
2018-08-18T06:13:51.876Z,15.50
2018-08-18T06:16:20.316Z,15.70
2018-08-18T06:18:48.785Z,15.80
2018-08-18T06:21:17.256Z,15.90
2018-08-18T06:23:46.824Z,16.10
2018-08-18T06:26:16.182Z,16.20
2018-08-18T06:28:44.638Z,16.40
2018-08-18T06:31:13.115Z,16.60
2018-08-18T06:33:41.566Z,16.70
2018-08-18T06:36:10.112Z,16.80
2018-08-18T06:38:38.705Z,16.90
2018-08-18T06:41:07.550Z,17.00
2018-08-18T06:43:35.976Z,17.20
2018-08-18T06:46:04.524Z,17.30
2018-08-18T06:48:35.132Z,17.60
2018-08-18T06:51:03.970Z,17.70
2018-08-18T06:53:37.770Z,17.70
2018-08-18T06:56:06.795Z,17.80
2018-08-18T06:58:35.561Z,17.80
2018-08-18T07:01:04.096Z,17.80
2018-08-18T07:03:37.362Z,17.70
2018-08-18T07:06:06.598Z,17.80
2018-08-18T07:08:40.914Z,17.80
2018-08-18T07:11:10.084Z,17.80
2018-08-18T07:13:38.766Z,17.90
2018-08-18T07:16:07.785Z,17.90
2018-08-18T07:18:36.324Z,17.90
2018-08-18T07:21:04.789Z,17.90
2018-08-18T07:23:33.232Z,17.80
2018-08-18T07:26:02.596Z,17.90
2018-08-18T07:28:31.165Z,18.10
2018-08-18T07:30:59.778Z,18.10
2018-08-18T07:33:28.356Z,18.20
2018-08-18T07:35:56.910Z,18.30
2018-08-18T07:38:25.508Z,18.40
2018-08-18T07:40:55.027Z,18.40
2018-08-18T07:43:29.562Z,18.30
2018-08-18T07:45:59.660Z,18.30
2018-08-18T07:48:28.118Z,18.30
2018-08-18T07:50:56.785Z,18.50
2018-08-18T07:53:25.307Z,18.80
2018-08-18T07:55:53.760Z,18.90
2018-08-18T07:58:23.513Z,18.90
2018-08-18T08:00:52.092Z,19.00
2018-08-18T08:03:21.287Z,19.20
2018-08-18T08:05:49.820Z,19.40
2018-08-18T08:08:18.446Z,19.80
2018-08-18T08:10:46.899Z,19.90
2018-08-18T08:13:15.939Z,19.80
2018-08-18T08:15:44.744Z,19.80
2018-08-18T08:18:14.641Z,20.00
2018-08-18T08:20:43.135Z,20.10
2018-08-18T08:23:11.682Z,20.10
2018-08-18T08:25:40.160Z,20.20
2018-08-18T08:28:08.691Z,20.40
2018-08-18T08:30:37.120Z,20.50
2018-08-18T08:33:05.782Z,20.50
2018-08-18T08:35:37.475Z,20.40
2018-08-18T08:38:05.998Z,20.30
2018-08-18T08:40:34.676Z,20.10
2018-08-18T08:43:03.600Z,20.20
2018-08-18T08:45:32.257Z,20.20
2018-08-18T08:48:00.826Z,20.20
2018-08-18T08:50:29.288Z,20.20
2018-08-18T08:52:58.315Z,20.30
2018-08-18T08:55:28.022Z,20.40
2018-08-18T08:57:56.633Z,20.50
2018-08-18T09:00:25.118Z,20.50
2018-08-18T09:02:54.515Z,20.70
2018-08-18T09:05:23.077Z,21.00
2018-08-18T09:07:51.533Z,21.10
2018-08-18T09:10:20.109Z,21.00
2018-08-18T09:12:48.625Z,21.10
2018-08-18T09:15:18.029Z,21.10
2018-08-18T09:17:46.539Z,21.20
2018-08-18T09:20:17.763Z,21.20
2018-08-18T09:22:53.263Z,21.30
2018-08-18T09:25:21.972Z,21.40
2018-08-18T09:27:53.530Z,21.50
2018-08-18T09:30:22.470Z,21.80
2018-08-18T09:32:51.041Z,21.90
2018-08-18T09:35:19.542Z,21.90
2018-08-18T09:37:53.373Z,21.90
2018-08-18T09:40:29.909Z,22.10
2018-08-18T09:42:58.427Z,22.40
2018-08-18T09:45:27.092Z,22.50
2018-08-18T09:47:55.530Z,22.60
2018-08-18T09:50:24.033Z,22.70
2018-08-18T09:52:52.547Z,22.80
2018-08-18T09:55:21.193Z,22.80
2018-08-18T09:57:49.734Z,22.70
2018-08-18T10:00:18.373Z,22.70
2018-08-18T10:02:46.925Z,22.80
2018-08-18T10:05:15.448Z,22.80
2018-08-18T10:07:43.929Z,22.70
2018-08-18T10:10:13.534Z,23.00
2018-08-18T10:12:42.050Z,23.00
2018-08-18T10:15:10.654Z,22.70
2018-08-18T10:17:39.155Z,22.80
2018-08-18T10:20:07.856Z,22.70
2018-08-18T10:22:36.381Z,22.50
2018-08-18T10:25:05.831Z,22.60
2018-08-18T10:27:34.295Z,22.70
2018-08-18T10:30:02.771Z,22.70
2018-08-18T10:32:31.368Z,22.80
2018-08-18T10:34:59.949Z,23.10
2018-08-18T10:37:28.399Z,23.10
2018-08-18T10:40:02.266Z,23.30
2018-08-18T10:42:31.854Z,23.60
2018-08-18T10:45:00.302Z,23.70
2018-08-18T10:47:29.129Z,23.70
2018-08-18T10:50:09.280Z,24.60
2018-08-18T10:52:49.167Z,24.90
2018-08-18T10:55:18.544Z,24.50
2018-08-18T10:57:58.796Z,24.40
2018-08-18T11:00:28.437Z,24.30
2018-08-18T11:03:01.186Z,24.50
2018-08-18T11:05:30.301Z,24.70
2018-08-18T11:08:04.468Z,25.10
2018-08-18T11:10:34.949Z,25.20
2018-08-18T11:13:03.741Z,25.00
2018-08-18T11:15:32.240Z,24.90
2018-08-18T11:18:00.829Z,24.70
2018-08-18T11:20:30.679Z,24.60
2018-08-18T11:23:04.658Z,24.00
2018-08-18T11:25:41.270Z,23.70
2018-08-18T11:28:10.872Z,23.70
2018-08-18T11:30:39.563Z,23.80
2018-08-18T11:33:08.172Z,24.20
2018-08-18T11:35:37.163Z,24.40
2018-08-18T11:38:13.860Z,24.30
2018-08-18T11:40:42.417Z,24.20
2018-08-18T11:43:13.862Z,24.10
2018-08-18T11:45:43.462Z,23.80
2018-08-18T11:48:22.468Z,23.70
2018-08-18T11:50:52.324Z,23.60
2018-08-18T11:53:20.930Z,23.80
2018-08-18T11:55:49.497Z,23.70
2018-08-18T11:58:19.400Z,23.70
2018-08-18T12:00:57.715Z,23.60
2018-08-18T12:03:29.802Z,23.40
2018-08-18T12:05:59.575Z,23.50
2018-08-18T12:08:30.250Z,23.50
2018-08-18T12:11:01.388Z,23.50
2018-08-18T12:13:35.210Z,23.40
2018-08-18T12:16:14.391Z,23.30
2018-08-18T12:18:44.225Z,23.20
2018-08-18T12:21:13.118Z,23.20
2018-08-18T12:23:47.050Z,23.30
2018-08-18T12:26:22.806Z,23.20
2018-08-18T12:28:52.964Z,22.90
2018-08-18T12:31:23.626Z,22.70
2018-08-18T12:33:52.153Z,22.70
2018-08-18T12:36:20.947Z,22.90
2018-08-18T12:38:51.617Z,23.10
2018-08-18T12:41:20.115Z,23.20
2018-08-18T12:43:50.579Z,23.50
2018-08-18T12:46:20.470Z,23.50
2018-08-18T12:48:50.405Z,23.80
2018-08-18T12:51:19.635Z,23.80
2018-08-18T12:53:49.694Z,23.80
2018-08-18T12:56:20.126Z,23.80
2018-08-18T12:58:48.725Z,23.70
2018-08-18T13:01:34.435Z,23.60
2018-08-18T13:04:03.037Z,23.70
2018-08-18T13:06:39.615Z,23.80
2018-08-18T13:09:09.784Z,23.80
2018-08-18T13:11:38.324Z,23.50
2018-08-18T13:14:06.854Z,23.50
2018-08-18T13:16:36.452Z,23.40
2018-08-18T13:19:05.561Z,23.40
2018-08-18T13:21:34.057Z,23.50
2018-08-18T13:24:03.339Z,23.50
2018-08-18T13:26:32.034Z,23.40
2018-08-18T13:29:00.437Z,23.30
2018-08-18T13:31:37.155Z,23.40
2018-08-18T13:34:06.385Z,23.40
2018-08-18T13:36:36.094Z,23.40
2018-08-18T13:39:07.600Z,23.30
2018-08-18T13:41:36.072Z,23.60
2018-08-18T13:44:04.558Z,23.80
2018-08-18T13:46:45.983Z,24.00
2018-08-18T13:49:14.534Z,24.10
2018-08-18T13:51:43.173Z,24.10
2018-08-18T13:54:11.665Z,24.30
2018-08-18T13:56:40.197Z,24.10
2018-08-18T13:59:08.752Z,24.00
2018-08-18T14:01:45.265Z,23.90
2018-08-18T14:04:21.286Z,23.70
2018-08-18T14:06:53.192Z,23.50
2018-08-18T14:09:21.754Z,23.50
2018-08-18T14:11:51.220Z,23.40
2018-08-18T14:14:19.709Z,23.20
2018-08-18T14:16:51.144Z,23.20
2018-08-18T14:19:21.514Z,23.40
2018-08-18T14:21:54.373Z,23.50
2018-08-18T14:24:27.116Z,23.50
2018-08-18T14:27:00.513Z,23.40
2018-08-18T14:29:30.692Z,23.40
2018-08-18T14:31:59.745Z,23.30
2018-08-18T14:34:28.443Z,23.10
2018-08-18T14:37:15.487Z,23.00
2018-08-18T14:39:44.041Z,23.10
2018-08-18T14:42:12.548Z,23.30
2018-08-18T14:44:41.064Z,23.40
2018-08-18T14:47:09.680Z,23.30
2018-08-18T14:49:38.250Z,23.30
2018-08-18T14:52:06.791Z,23.10
2018-08-18T14:54:35.406Z,23.10
2018-08-18T14:57:04.152Z,23.20
2018-08-18T14:59:35.748Z,23.40
2018-08-18T15:02:05.946Z,23.20
2018-08-18T15:04:35.399Z,23.20
2018-08-18T15:07:03.996Z,23.20
2018-08-18T15:09:43.099Z,23.20
2018-08-18T15:12:11.694Z,23.10
2018-08-18T15:14:40.293Z,23.30
2018-08-18T15:17:08.813Z,23.20
2018-08-18T15:19:37.288Z,23.10
2018-08-18T15:22:09.956Z,23.10
2018-08-18T15:24:38.696Z,23.00
2018-08-18T15:27:07.494Z,22.90
2018-08-18T15:29:35.985Z,22.90
2018-08-18T15:32:04.592Z,22.90
2018-08-18T15:34:33.242Z,23.00
2018-08-18T15:37:01.809Z,23.20
2018-08-18T15:39:30.529Z,23.30
2018-08-18T15:42:00.342Z,23.30
2018-08-18T15:44:28.919Z,23.40
2018-08-18T15:46:57.998Z,23.40
2018-08-18T15:49:26.716Z,23.30
2018-08-18T15:51:55.603Z,23.10
2018-08-18T15:54:24.793Z,23.10
2018-08-18T15:56:53.225Z,23.10
2018-08-18T15:59:21.693Z,23.00
2018-08-18T16:01:50.256Z,22.90
2018-08-18T16:04:18.734Z,22.80
2018-08-18T16:06:47.345Z,22.80
2018-08-18T16:09:15.977Z,22.80
2018-08-18T16:11:44.641Z,22.80
2018-08-18T16:14:13.123Z,22.90
2018-08-18T16:16:55.681Z,23.00
2018-08-18T16:19:24.958Z,23.00
2018-08-18T16:21:53.481Z,22.90
2018-08-18T16:24:30.356Z,22.90
2018-08-18T16:26:58.926Z,22.80
2018-08-18T16:29:27.523Z,22.80
2018-08-18T16:32:13.122Z,22.70
2018-08-18T16:34:42.694Z,22.60
2018-08-18T16:37:11.182Z,22.60
2018-08-18T16:39:40.279Z,22.60
2018-08-18T16:42:09.062Z,22.60
2018-08-18T16:44:37.648Z,22.60
2018-08-18T16:47:06.878Z,22.50
2018-08-18T16:49:35.354Z,22.50
2018-08-18T16:52:03.930Z,22.50
2018-08-18T16:54:33.176Z,22.50
2018-08-18T16:57:01.793Z,22.60
2018-08-18T16:59:30.538Z,22.60
2018-08-18T17:01:59.028Z,22.70
2018-08-18T17:04:30.952Z,22.80
2018-08-18T17:07:00.748Z,22.90
2018-08-18T17:09:35.657Z,22.80
2018-08-18T17:12:13.124Z,22.70
2018-08-18T17:14:41.886Z,22.50
2018-08-18T17:17:11.365Z,22.40
2018-08-18T17:19:40.376Z,22.40
2018-08-18T17:22:10.324Z,22.40
2018-08-18T17:24:39.658Z,22.20
2018-08-18T17:27:08.270Z,22.20
2018-08-18T17:29:39.302Z,22.20
2018-08-18T17:32:08.728Z,22.10
2018-08-18T17:34:37.286Z,22.10
2018-08-18T17:37:06.079Z,22.00
2018-08-18T17:39:34.594Z,22.00
2018-08-18T17:42:03.074Z,22.00
2018-08-18T17:44:31.747Z,21.90
2018-08-18T17:47:04.762Z,21.80
2018-08-18T17:50:13.463Z,21.80
2018-08-18T17:52:41.942Z,21.70
2018-08-18T17:55:17.665Z,21.60
2018-08-18T17:57:46.180Z,21.60
2018-08-18T18:00:19.195Z,21.50
2018-08-18T18:02:53.905Z,21.50
2018-08-18T18:05:23.787Z,21.50
2018-08-18T18:07:55.875Z,21.40
2018-08-18T18:10:26.593Z,21.40
2018-08-18T18:12:55.114Z,21.40
2018-08-18T18:15:42.674Z,21.50
2018-08-18T18:18:12.925Z,21.40
2018-08-18T18:20:43.117Z,21.40
2018-08-18T18:23:12.801Z,21.30
2018-08-18T18:25:41.694Z,21.30
2018-08-18T18:28:10.269Z,21.30
2018-08-18T18:30:38.748Z,21.30
2018-08-18T18:33:08.311Z,21.30
2018-08-18T18:35:36.873Z,21.30
2018-08-18T18:38:05.838Z,21.30
2018-08-18T18:40:36.149Z,21.30
2018-08-18T18:43:04.629Z,21.30
2018-08-18T18:45:33.209Z,21.20
2018-08-18T18:48:01.763Z,21.20
2018-08-18T18:50:30.367Z,21.20
2018-08-18T18:52:59.026Z,21.20
2018-08-18T18:55:27.687Z,21.20
2018-08-18T18:58:11.275Z,21.20
2018-08-18T19:00:44.394Z,21.20
2018-08-18T19:03:12.885Z,21.20
2018-08-18T19:05:41.387Z,21.20
2018-08-18T19:08:15.855Z,21.10
2018-08-18T19:10:44.435Z,21.10
2018-08-18T19:13:13.126Z,21.10
2018-08-18T19:15:41.656Z,21.00
2018-08-18T19:18:11.033Z,21.00
2018-08-18T19:20:39.513Z,21.00
2018-08-18T19:23:13.327Z,20.90
2018-08-18T19:32:30.556Z,20.80
2018-08-18T19:34:58.997Z,20.70
2018-08-18T19:37:27.550Z,20.70
2018-08-18T19:39:56.006Z,20.60
2018-08-18T19:42:24.466Z,20.60
2018-08-18T19:44:53.282Z,20.50
2018-08-18T19:47:25.959Z,20.60
2018-08-18T19:49:54.442Z,20.60
2018-08-18T19:52:23.840Z,20.50
2018-08-18T19:54:53.078Z,20.50
2018-08-18T19:57:27.292Z,20.50
2018-08-18T20:00:01.423Z,20.40
2018-08-18T20:02:47.883Z,20.40
2018-08-18T20:05:16.682Z,20.40
2018-08-18T20:07:45.134Z,20.40
2018-08-18T20:10:13.752Z,20.40
2018-08-18T20:12:42.633Z,20.40
2018-08-18T20:15:11.108Z,20.40
2018-08-18T20:17:39.930Z,20.50
2018-08-18T20:20:08.691Z,20.50
2018-08-18T20:22:37.134Z,20.50
2018-08-18T20:25:06.133Z,20.50
2018-08-18T20:27:34.602Z,20.40
2018-08-18T20:30:03.121Z,20.40
2018-08-18T20:32:33.291Z,20.40
2018-08-18T20:35:01.839Z,20.30
2018-08-18T20:37:30.284Z,20.30
2018-08-18T20:39:59.014Z,20.30
2018-08-18T20:42:32.970Z,20.30
2018-08-18T20:45:01.421Z,20.30
2018-08-18T20:47:31.319Z,20.30
2018-08-18T20:49:59.972Z,20.20
2018-08-18T20:52:29.400Z,20.20
2018-08-18T20:54:58.742Z,20.10
2018-08-18T20:57:27.398Z,20.10
2018-08-18T20:59:55.832Z,20.10
2018-08-18T21:02:24.286Z,20.00
2018-08-18T21:05:00.318Z,20.00
2018-08-18T21:07:30.420Z,19.90
2018-08-18T21:09:59.418Z,19.80
2018-08-18T21:12:36.338Z,19.80
2018-08-18T21:15:04.824Z,19.80
2018-08-18T21:17:33.270Z,19.70
2018-08-18T21:20:01.930Z,19.60
2018-08-18T21:22:31.765Z,19.50
2018-08-18T21:25:01.285Z,19.50
2018-08-18T21:27:29.782Z,19.40
2018-08-18T21:29:58.842Z,19.40
2018-08-18T21:32:28.150Z,19.20
2018-08-18T21:34:56.830Z,19.20
2018-08-18T21:37:25.278Z,19.20
2018-08-18T21:39:53.831Z,19.10
2018-08-18T21:42:22.305Z,19.00
2018-08-18T21:44:53.712Z,19.00
2018-08-18T21:47:22.255Z,19.00
2018-08-18T21:49:50.919Z,18.90
2018-08-18T21:52:19.598Z,18.90
2018-08-18T21:54:48.142Z,18.90
2018-08-18T21:57:16.755Z,18.90
2018-08-18T21:59:52.536Z,18.90
2018-08-18T22:02:33.621Z,19.00
2018-08-18T22:05:02.186Z,19.00
2018-08-18T22:07:44.319Z,19.00
2018-08-18T22:10:12.776Z,19.10
2018-08-18T22:12:41.638Z,19.10
2018-08-18T22:15:27.156Z,19.10
2018-08-18T22:17:55.672Z,19.10
2018-08-18T22:20:24.368Z,19.10
2018-08-18T22:22:52.968Z,19.10
2018-08-18T22:25:21.348Z,19.10
2018-08-18T22:27:53.623Z,19.10
2018-08-18T22:30:27.737Z,19.10
2018-08-18T22:32:56.194Z,19.10
2018-08-18T22:35:24.715Z,19.10
2018-08-18T22:37:53.319Z,19.10
2018-08-18T22:40:21.874Z,19.10
2018-08-18T22:42:50.420Z,19.10
2018-08-18T22:45:27.283Z,19.20
2018-08-18T22:47:55.917Z,19.10
2018-08-18T22:50:24.419Z,19.10
2018-08-18T22:52:54.029Z,19.00
2018-08-18T22:55:22.487Z,19.00
2018-08-18T22:57:55.048Z,19.00
2018-08-18T23:00:24.123Z,19.10
2018-08-18T23:02:52.879Z,19.00
2018-08-18T23:05:21.965Z,19.10
2018-08-18T23:07:52.666Z,19.10
2018-08-18T23:10:21.693Z,19.10
2018-08-18T23:12:50.250Z,19.10
2018-08-18T23:15:18.717Z,19.00
2018-08-18T23:17:47.213Z,19.00
2018-08-18T23:20:15.698Z,19.00
2018-08-18T23:22:52.735Z,18.80
2018-08-18T23:25:22.429Z,18.80
2018-08-18T23:27:51.203Z,18.80
2018-08-18T23:30:27.933Z,18.80
2018-08-18T23:32:56.445Z,18.80
2018-08-18T23:35:26.584Z,18.80
2018-08-18T23:37:55.470Z,18.80
2018-08-18T23:40:24.078Z,18.70
2018-08-18T23:42:52.636Z,18.70
2018-08-18T23:45:21.445Z,18.70
2018-08-18T23:47:56.228Z,18.70
2018-08-18T23:50:26.192Z,18.70
2018-08-18T23:52:58.640Z,18.70
2018-08-18T23:55:28.592Z,18.70
2018-08-18T23:57:57.472Z,18.70
